Weather History for KECS - April, 2014

Change the Weather History Date:

Saturday, April 26, 2014

  Actual Average (KCUT) Record (KCUT)
Temperature  
Mean Temperature 58 °F 42 °F  
Max Temperature 66 °F 55 °F 78 °F (1952)
Min Temperature 51 °F 30 °F 11 °F (1958)
Degree Days  
Heating Degree Days 6 23  
Month to date heating degree days 689  
Since 1 July heating degree days 7564  
Cooling Degree Days 0 0  
Month to date cooling degree days 0  
Year to date cooling degree days 0  
Growing Degree Days 8 (Base 50)    
Moisture  
Dew Point 32 °F    
Average Humidity 38    
Maximum Humidity 76    
Minimum Humidity 23    
Precipitation  
Precipitation 0.04 in 0.09 in 1.00 in (1971)
Month to date precipitation 1.75  
Year to date precipitation 3.62  
Sea Level Pressure  
Sea Level Pressure 29.50 in    
Wind  
Wind Speed 14 mph (SE)    
Max Wind Speed 22 mph    
Max Gust Speed 38 mph    
Visibility 10 miles    
Events Rain    
T = Trace of Precipitation, MM = Missing Value Source: NWS Daily Summary

Daily Weather History Graph

Daily Weather History Graph

Search for Another Location

Airport or City:

Trip Planner

Search our weather history database for the weather conditions in past years. The results will help you decide how hot, cold, wet, or windy it might be!

Date:

Astronomy

Apr. 26, 2014 Rise Set
Actual Time 5:56 AM MDT 7:54 PM MDT
Civil Twilight 5:25 AM MDT 8:25 PM MDT
Nautical Twilight 4:47 AM MDT 9:03 PM MDT
Astronomical Twilight 4:05 AM MDT 9:45 PM MDT
Moon 4:28 AM MDT (4/26) 5:20 PM MDT (4/26)
Length of Visible Light 15h 00m
Length of Day
13h 57m
Waning Crescent, 8% of the Moon is Illuminated
Apr 26
Waning Crescent
Apr 29
New
May 6
First Quarter
May 14
Full
May 21
Last Quarter

Hourly Weather History & Observations

Time (MDT) Temp. Dew Point Humidity Pressure Visibility Wind Dir Wind Speed Gust Speed Precip Events Conditions
12:15 AM 60.8 °F 26.6 °F 27% 29.64 in 10.0 mi ESE 17.3 mph 38.0 mph N/A   Clear
12:35 AM 60.8 °F 26.6 °F 27% 29.62 in 10.0 mi ESE 13.8 mph 19.6 mph N/A   Clear
12:55 AM 60.8 °F 26.6 °F 27% 29.61 in 10.0 mi SE 15.0 mph 20.7 mph N/A   Clear
1:15 AM 60.8 °F 24.8 °F 25% 29.59 in 10.0 mi ESE 15.0 mph 28.8 mph N/A   Clear
1:35 AM 60.8 °F 24.8 °F 25% 29.58 in 10.0 mi ESE 20.7 mph 27.6 mph N/A   Clear
1:55 AM 60.8 °F 23.0 °F 23% 29.57 in 10.0 mi ESE 19.6 mph 27.6 mph N/A   Clear
2:15 AM 59.0 °F 24.8 °F 27% 29.56 in 10.0 mi ESE 21.9 mph 26.5 mph N/A   Clear
2:35 AM 59.0 °F 24.8 °F 27% 29.55 in 10.0 mi ESE 20.7 mph 32.2 mph N/A   Clear
2:55 AM 57.2 °F 24.8 °F 29% 29.54 in 10.0 mi ESE 17.3 mph - N/A   Clear
3:15 AM 57.2 °F 24.8 °F 29% 29.53 in 10.0 mi ESE 20.7 mph 31.1 mph N/A   Clear
3:35 AM 55.4 °F 24.8 °F 31% 29.53 in 10.0 mi ESE 19.6 mph 27.6 mph N/A   Clear
3:55 AM 55.4 °F 26.6 °F 33% 29.53 in 10.0 mi ESE 21.9 mph 26.5 mph N/A   Clear
4:15 AM 55.4 °F 26.6 °F 33% 29.53 in 10.0 mi ESE 18.4 mph 27.6 mph N/A   Clear
4:35 AM 53.6 °F 26.6 °F 35% 29.54 in 10.0 mi ESE 21.9 mph 28.8 mph N/A   Clear
4:55 AM 53.6 °F 26.6 °F 35% 29.54 in 10.0 mi ESE 19.6 mph 26.5 mph N/A   Clear
5:15 AM 53.6 °F 26.6 °F 35% 29.53 in 10.0 mi ESE 17.3 mph - N/A   Clear
5:35 AM 53.6 °F 26.6 °F 35% 29.53 in 10.0 mi ESE 17.3 mph - N/A   Clear
5:55 AM 53.6 °F 26.6 °F 35% 29.54 in 10.0 mi ESE 16.1 mph - N/A   Clear
6:15 AM 51.8 °F 26.6 °F 38% 29.53 in 10.0 mi ESE 17.3 mph 24.2 mph N/A   Clear
6:35 AM 51.8 °F 26.6 °F 38% 29.53 in 10.0 mi ESE 18.4 mph - N/A   Clear
6:55 AM 53.6 °F 26.6 °F 35% 29.55 in 10.0 mi ESE 13.8 mph - N/A   Clear
7:15 AM 53.6 °F 26.6 °F 35% 29.55 in 10.0 mi ESE 10.4 mph - N/A   Clear
7:35 AM 55.4 °F 26.6 °F 33% 29.55 in 10.0 mi ESE 11.5 mph 16.1 mph N/A   Clear
8:15 AM 57.2 °F 28.4 °F 33% 29.55 in 10.0 mi North - - N/A   Clear
8:35 AM 59.0 °F 28.4 °F 31% 29.55 in 10.0 mi SE 15.0 mph 19.6 mph N/A   Clear
8:55 AM 59.0 °F 28.4 °F 31% 29.54 in 10.0 mi SSE 16.1 mph - N/A   Clear
9:15 AM 59.0 °F 28.4 °F 31% 29.53 in 10.0 mi North - - N/A   Clear
9:35 AM 59.0 °F 28.4 °F 31% 29.53 in 10.0 mi North - - N/A   Clear
9:55 AM 60.8 °F 28.4 °F 29% 29.53 in 10.0 mi SSE 12.7 mph - N/A   Clear
10:15 AM 60.8 °F 30.2 °F 31% 29.52 in 10.0 mi SE 10.4 mph - N/A   Clear
10:35 AM 60.8 °F 30.2 °F 31% 29.51 in 10.0 mi SE 6.9 mph - N/A   Clear
10:55 AM 62.6 °F 30.2 °F 30% 29.51 in 10.0 mi North - - N/A   Clear
11:15 AM 62.6 °F 30.2 °F 30% 29.50 in 10.0 mi North - - N/A   Clear
11:35 AM 64.4 °F 30.2 °F 28% 29.50 in 10.0 mi South 8.1 mph - N/A   Clear
11:55 AM 64.4 °F 32.0 °F 30% 29.50 in 10.0 mi South 12.7 mph - N/A   Clear
12:15 PM 62.6 °F 32.0 °F 32% 29.49 in 10.0 mi South 15.0 mph - N/A   Clear
12:35 PM 60.8 °F 32.0 °F 34% 29.48 in 10.0 mi SSE 11.5 mph - N/A   Clear
12:55 PM 60.8 °F 32.0 °F 34% 29.48 in 10.0 mi North - - N/A   Clear
1:15 PM 60.8 °F 32.0 °F 34% 29.47 in 10.0 mi North - - N/A   Clear
1:35 PM 62.6 °F 32.0 °F 32% 29.47 in 10.0 mi North - - N/A   Clear
1:55 PM 62.6 °F 33.8 °F 34% 29.47 in 10.0 mi South 12.7 mph 18.4 mph N/A   Clear
2:15 PM 60.8 °F 33.8 °F 36% 29.47 in 10.0 mi North - - N/A   Clear
2:35 PM 60.8 °F 33.8 °F 36% 29.44 in 10.0 mi East 5.8 mph - N/A   Clear
2:55 PM 62.6 °F 33.8 °F 34% 29.44 in 10.0 mi North - - N/A   Clear
3:15 PM 64.4 °F 33.8 °F 32% 29.43 in 10.0 mi NW 4.6 mph - N/A   Clear
3:35 PM 66.2 °F 35.6 °F 32% 29.43 in 10.0 mi West 5.8 mph - N/A   Clear
3:55 PM 66.2 °F 33.8 °F 30% 29.43 in 10.0 mi SW 10.4 mph - N/A   Clear
4:15 PM 62.6 °F 35.6 °F 37% 29.44 in 10.0 mi SSW 15.0 mph - N/A   Clear
4:35 PM 60.8 °F 37.4 °F 42% 29.45 in 10.0 mi SSW 17.3 mph 23.0 mph N/A   Clear
4:55 PM 60.8 °F 37.4 °F 42% 29.46 in 10.0 mi SSW 12.7 mph 18.4 mph N/A   Clear
5:15 PM 60.8 °F 37.4 °F 42% 29.46 in 10.0 mi SSW 9.2 mph - N/A   Clear
5:35 PM 59.0 °F 39.2 °F 48% 29.46 in 10.0 mi SSW 9.2 mph - N/A   Clear
5:55 PM 59.0 °F 39.2 °F 48% 29.47 in 10.0 mi SW 8.1 mph - N/A   Clear
6:15 PM 59.0 °F 39.2 °F 48% 29.47 in 10.0 mi WSW 12.7 mph - N/A   Clear
6:35 PM 57.2 °F 37.4 °F 48% 29.47 in 10.0 mi West 12.7 mph - N/A   Clear
6:55 PM 57.2 °F 35.6 °F 44% 29.47 in 10.0 mi Calm Calm - N/A   Clear
7:15 PM 55.4 °F 35.6 °F 47% 29.46 in 10.0 mi North 4.6 mph - N/A   Clear
7:35 PM 55.4 °F 35.6 °F 47% 29.45 in 10.0 mi NNE 6.9 mph - N/A   Clear
7:55 PM 55.4 °F 35.6 °F 47% 29.45 in 10.0 mi NE 4.6 mph - N/A   Clear
8:15 PM 55.4 °F 35.6 °F 47% 29.45 in 10.0 mi ENE 6.9 mph - N/A   Clear
8:35 PM 55.4 °F 35.6 °F 47% 29.45 in 10.0 mi NE 4.6 mph - N/A   Clear
8:55 PM 55.4 °F 35.6 °F 47% 29.45 in 10.0 mi ENE 4.6 mph - N/A   Clear
9:15 PM 55.4 °F 37.4 °F 51% 29.45 in 10.0 mi North 5.8 mph - N/A   Clear
9:35 PM 53.6 °F 37.4 °F 54% 29.45 in 10.0 mi North 6.9 mph - N/A   Clear
9:55 PM 53.6 °F 37.4 °F 54% 29.44 in 10.0 mi NNE 4.6 mph - N/A   Scattered Clouds
10:15 PM 55.4 °F 37.4 °F 51% 29.45 in 10.0 mi NW 3.5 mph - N/A   Clear
10:35 PM 55.4 °F 37.4 °F 51% 29.43 in 10.0 mi NW 5.8 mph - N/A   Clear
10:55 PM 53.6 °F 41.0 °F 62% 29.43 in 10.0 mi NNW 6.9 mph - N/A Rain Light Rain
11:15 PM 55.4 °F 41.0 °F 58% 29.43 in 10.0 mi Calm Calm - N/A Rain Light Rain
11:35 PM 51.8 °F 44.6 °F 76% 29.43 in 10.0 mi SE 5.8 mph - 0.01 in Rain Light Rain
11:55 PM 51.8 °F 44.6 °F 76% 29.41 in 10.0 mi Calm Calm - 0.04 in Rain Light Rain